createdAt,value
2018-04-12T00:02:34.829Z,12.75
2018-04-12T00:05:02.346Z,12.79
2018-04-12T00:07:29.829Z,12.80
2018-04-12T00:09:57.326Z,12.80
2018-04-12T00:12:24.841Z,12.65
2018-04-12T00:14:52.333Z,12.79
2018-04-12T00:17:19.820Z,12.79
2018-04-12T00:19:47.332Z,12.78
2018-04-12T00:22:14.829Z,12.72
2018-04-12T00:24:42.326Z,12.70
2018-04-12T00:27:09.841Z,12.58
2018-04-12T00:29:37.338Z,12.55
2018-04-12T00:32:04.820Z,12.63
2018-04-12T00:34:32.338Z,12.62
2018-04-12T00:36:59.824Z,12.51
2018-04-12T00:39:27.319Z,12.45
2018-04-12T00:41:54.833Z,12.56
2018-04-12T00:44:22.325Z,12.60
2018-04-12T00:46:49.813Z,12.60
2018-04-12T00:49:17.337Z,12.70
2018-04-12T00:51:44.824Z,12.77
2018-04-12T00:54:12.317Z,12.71
2018-04-12T00:56:39.825Z,12.73
2018-04-12T00:59:07.325Z,12.69
2018-04-12T01:01:34.812Z,12.70
2018-04-12T01:04:02.338Z,12.71
2018-04-12T01:06:29.838Z,12.78
2018-04-12T01:08:57.320Z,12.82
2018-04-12T01:11:24.825Z,12.83
2018-04-12T01:13:52.392Z,12.78
2018-04-12T01:16:19.900Z,12.85
2018-04-12T01:18:47.413Z,12.88
2018-04-12T01:21:14.893Z,12.87
2018-04-12T01:23:42.381Z,12.98
2018-04-12T01:26:09.898Z,12.95
2018-04-12T01:28:37.385Z,12.94
2018-04-12T01:31:04.879Z,12.82
2018-04-12T01:33:32.394Z,12.76
2018-04-12T01:35:59.890Z,12.86
2018-04-12T01:38:27.372Z,12.89
2018-04-12T01:40:55.864Z,12.92
2018-04-12T01:43:23.349Z,12.87
2018-04-12T01:45:50.833Z,12.82
2018-04-12T01:48:18.342Z,12.68
2018-04-12T01:50:45.836Z,12.73
2018-04-12T01:53:13.332Z,12.71
2018-04-12T01:55:40.853Z,12.74
2018-04-12T01:58:08.342Z,12.71
2018-04-12T02:00:35.830Z,12.67
2018-04-12T02:03:03.341Z,12.76
2018-04-12T02:05:30.825Z,12.66
2018-04-12T02:07:58.308Z,12.63
2018-04-12T02:10:25.816Z,12.65
2018-04-12T02:12:53.335Z,12.57
2018-04-12T02:15:20.840Z,12.61
2018-04-12T02:17:48.353Z,12.59
2018-04-12T02:20:15.842Z,12.63
2018-04-12T02:22:43.332Z,12.59
2018-04-12T02:25:10.841Z,12.59
2018-04-12T02:27:38.320Z,12.61
2018-04-12T02:30:05.817Z,12.57
2018-04-12T02:32:33.340Z,12.52
2018-04-12T02:35:00.892Z,12.50
2018-04-12T02:37:28.358Z,12.50
2018-04-12T02:39:55.869Z,12.47
2018-04-12T02:42:23.358Z,12.48
2018-04-12T02:44:50.901Z,12.45
2018-04-12T02:47:18.408Z,12.46
2018-04-12T02:49:45.897Z,12.41
2018-04-12T02:52:13.390Z,12.49
2018-04-12T02:54:40.914Z,12.48
2018-04-12T02:57:08.401Z,12.39
2018-04-12T02:59:35.893Z,12.44
2018-04-12T03:02:03.406Z,12.42
2018-04-12T03:04:30.894Z,12.44
2018-04-12T03:06:58.381Z,12.42
2018-04-12T03:09:25.890Z,12.42
2018-04-12T03:11:53.373Z,12.42
2018-04-12T03:14:20.856Z,12.42
2018-04-12T03:16:48.360Z,12.42
2018-04-12T03:19:15.839Z,12.38
2018-04-12T03:21:43.330Z,12.38
2018-04-12T03:24:10.846Z,12.35
2018-04-12T03:26:38.329Z,12.38
2018-04-12T03:29:05.813Z,12.39
2018-04-12T03:31:33.320Z,12.43
2018-04-12T03:34:00.808Z,12.43
2018-04-12T03:36:28.335Z,12.30
2018-04-12T03:38:55.962Z,12.42
2018-04-12T03:41:23.444Z,12.42
2018-04-12T03:43:51.042Z,12.40
2018-04-12T03:46:18.688Z,12.22
2018-04-12T03:48:46.377Z,12.31
2018-04-12T03:51:13.957Z,12.28
2018-04-12T03:53:41.695Z,12.27
2018-04-12T03:56:09.245Z,12.30
2018-04-12T03:58:36.789Z,12.26
2018-04-12T04:01:04.296Z,12.26
2018-04-12T04:03:32.026Z,12.26
2018-04-12T04:05:59.532Z,12.24
2018-04-12T04:08:27.045Z,12.24
2018-04-12T04:10:54.538Z,12.25
2018-04-12T04:13:22.029Z,12.28
2018-04-12T04:16:01.354Z,12.20
2018-04-12T04:18:40.609Z,12.15
2018-04-12T04:21:09.145Z,12.13
2018-04-12T04:23:36.628Z,12.13
2018-04-12T04:26:04.111Z,12.13
2018-04-12T04:28:31.617Z,12.13
2018-04-12T04:30:59.101Z,12.17
2018-04-12T04:33:26.593Z,12.15
2018-04-12T04:35:54.105Z,12.21
2018-04-12T04:38:21.601Z,12.24
2018-04-12T04:40:49.094Z,12.20
2018-04-12T04:43:16.612Z,12.21
2018-04-12T04:45:44.102Z,12.23
2018-04-12T04:48:11.647Z,12.21
2018-04-12T04:50:39.117Z,12.18
2018-04-12T04:53:06.616Z,12.22
2018-04-12T04:55:34.102Z,12.21
2018-04-12T04:58:01.626Z,12.22
2018-04-12T05:00:29.117Z,12.22
2018-04-12T05:02:56.690Z,12.22
2018-04-12T05:05:24.225Z,12.32
2018-04-12T05:07:51.715Z,12.41
2018-04-12T05:10:19.201Z,12.47
2018-04-12T05:12:46.713Z,12.47
2018-04-12T05:15:14.201Z,12.57
2018-04-12T05:17:41.684Z,12.53
2018-04-12T05:20:09.197Z,12.51
2018-04-12T05:22:36.689Z,12.45
2018-04-12T05:25:04.181Z,12.48
2018-04-12T05:27:31.693Z,12.49
2018-04-12T05:29:59.180Z,12.58
2018-04-12T05:32:26.674Z,12.62
2018-04-12T05:34:54.198Z,12.68
2018-04-12T05:37:21.688Z,12.72
2018-04-12T05:39:49.193Z,12.79
2018-04-12T05:42:16.709Z,12.92
2018-04-12T05:44:45.156Z,13.13
2018-04-12T05:47:12.646Z,14.33
2018-04-12T05:49:41.154Z,16.23
2018-04-12T05:52:08.641Z,17.05
2018-04-12T05:54:36.130Z,16.27
2018-04-12T05:57:03.644Z,15.46
2018-04-12T05:59:31.133Z,14.91
2018-04-12T06:01:58.629Z,17.69
2018-04-12T06:04:26.136Z,18.46
2018-04-12T06:06:53.650Z,18.91
2018-04-12T06:09:21.139Z,19.30
2018-04-12T06:11:48.697Z,19.82
2018-04-12T06:14:16.176Z,19.97
2018-04-12T06:16:43.656Z,19.68
2018-04-12T06:19:11.165Z,19.85
2018-04-12T06:21:38.652Z,20.23
2018-04-12T06:24:06.143Z,21.09
2018-04-12T06:26:33.667Z,20.86
2018-04-12T06:29:01.178Z,21.01
2018-04-12T06:31:28.671Z,21.59
2018-04-12T06:33:56.189Z,21.12
2018-04-12T06:36:23.673Z,21.00
2018-04-12T06:38:52.129Z,21.30
2018-04-12T06:41:19.645Z,21.57
2018-04-12T06:43:47.141Z,21.83
2018-04-12T06:46:14.633Z,21.69
2018-04-12T06:48:42.153Z,22.21
2018-04-12T06:51:09.646Z,22.18
2018-04-12T06:53:37.137Z,22.60
2018-04-12T06:56:04.670Z,23.30
2018-04-12T06:58:32.157Z,23.43
2018-04-12T07:00:59.640Z,23.61
2018-04-12T07:03:27.153Z,22.57
2018-04-12T07:05:54.646Z,22.54
2018-04-12T07:08:22.137Z,23.34
2018-04-12T07:10:49.655Z,24.04
2018-04-12T07:13:17.141Z,23.11
2018-04-12T07:15:44.625Z,23.32
2018-04-12T07:18:12.146Z,23.58
2018-04-12T07:20:39.628Z,24.24
2018-04-12T07:23:07.138Z,24.35
2018-04-12T07:25:34.666Z,24.44
2018-04-12T07:28:02.173Z,24.73
2018-04-12T07:30:29.669Z,25.10
2018-04-12T07:32:57.185Z,25.45
2018-04-12T07:35:24.680Z,26.16
2018-04-12T07:37:52.181Z,27.28
2018-04-12T07:40:19.698Z,25.16
2018-04-12T07:42:47.185Z,25.38
2018-04-12T07:45:14.702Z,25.82
2018-04-12T07:47:42.218Z,26.45
2018-04-12T07:50:09.710Z,26.45
2018-04-12T07:52:37.193Z,26.95
2018-04-12T07:55:04.705Z,26.66
2018-04-12T07:57:32.220Z,27.00
2018-04-12T07:59:59.696Z,24.05
2018-04-12T08:02:27.261Z,22.60
2018-04-12T08:04:54.753Z,24.85
2018-04-12T08:07:22.237Z,26.35
2018-04-12T08:09:49.750Z,23.97
2018-04-12T08:12:17.233Z,26.69
2018-04-12T08:14:44.717Z,28.56
2018-04-12T08:17:12.226Z,31.09
2018-04-12T08:19:39.718Z,30.91
2018-04-12T08:22:07.213Z,33.05
2018-04-12T08:24:34.725Z,33.90
2018-04-12T08:27:02.204Z,30.97
2018-04-12T08:29:29.692Z,32.38
2018-04-12T08:31:57.215Z,30.93
2018-04-12T08:34:24.696Z,30.11
2018-04-12T08:36:52.182Z,31.74
2018-04-12T08:39:19.684Z,31.72
2018-04-12T08:41:47.178Z,32.90
2018-04-12T08:44:14.677Z,32.74
2018-04-12T08:46:42.198Z,33.76
2018-04-12T08:49:09.672Z,34.56
2018-04-12T08:51:37.169Z,34.51
2018-04-12T08:54:04.681Z,33.56
2018-04-12T08:56:32.165Z,33.01
2018-04-12T08:58:59.654Z,33.94
2018-04-12T09:01:27.170Z,35.73
2018-04-12T09:03:54.649Z,35.91
2018-04-12T09:06:22.148Z,35.82
2018-04-12T09:08:49.657Z,36.54
2018-04-12T09:11:17.133Z,35.02
2018-04-12T09:13:44.617Z,33.12
2018-04-12T09:16:12.128Z,32.15
2018-04-12T09:18:39.605Z,30.38
2018-04-12T09:21:07.090Z,30.18
2018-04-12T09:23:34.597Z,29.17
2018-04-12T09:26:02.081Z,28.82
2018-04-12T09:28:29.567Z,27.51
2018-04-12T09:30:57.122Z,27.88
2018-04-12T09:33:24.602Z,28.11
2018-04-12T09:35:52.142Z,27.68
2018-04-12T09:38:19.647Z,27.26
2018-04-12T09:40:47.137Z,26.65
2018-04-12T09:43:15.525Z,26.24
2018-04-12T09:45:43.035Z,25.92
2018-04-12T09:48:10.513Z,25.75
2018-04-12T09:50:37.996Z,25.76
2018-04-12T09:53:05.506Z,25.74
2018-04-12T09:55:32.983Z,25.95
2018-04-12T09:58:00.457Z,26.05
2018-04-12T10:00:27.959Z,26.36
2018-04-12T10:02:56.283Z,26.60
2018-04-12T10:05:29.704Z,26.25
2018-04-12T10:08:04.637Z,27.18
2018-04-12T10:10:32.150Z,28.15
2018-04-12T10:12:59.636Z,28.46
2018-04-12T10:15:27.120Z,29.72
2018-04-12T10:17:54.656Z,30.20
2018-04-12T10:20:22.156Z,29.74
2018-04-12T10:22:49.633Z,27.95
2018-04-12T10:25:17.137Z,28.39
2018-04-12T10:27:44.622Z,28.18
2018-04-12T10:30:12.101Z,29.18
2018-04-12T10:32:39.612Z,31.01
2018-04-12T10:35:07.091Z,33.05
2018-04-12T10:37:34.577Z,32.48
2018-04-12T10:40:02.080Z,30.06
2018-04-12T10:42:29.563Z,28.79
2018-04-12T10:44:57.040Z,28.26
2018-04-12T10:47:24.545Z,28.24
2018-04-12T10:49:52.033Z,30.55
2018-04-12T10:52:20.424Z,32.30
2018-04-12T10:54:47.980Z,30.09
2018-04-12T10:57:15.461Z,31.12
2018-04-12T10:59:42.976Z,28.92
2018-04-12T11:02:10.534Z,28.38
2018-04-12T11:04:38.013Z,28.45
2018-04-12T11:07:05.502Z,28.16
2018-04-12T11:09:33.016Z,27.14
2018-04-12T11:12:00.509Z,27.12
2018-04-12T11:14:27.993Z,29.49
2018-04-12T11:16:55.504Z,28.00
2018-04-12T11:19:22.994Z,27.57
2018-04-12T11:21:50.490Z,26.89
2018-04-12T11:24:18.001Z,26.69
2018-04-12T11:26:45.490Z,27.60
2018-04-12T11:29:13.012Z,27.38
2018-04-12T11:31:40.539Z,27.25
2018-04-12T11:34:08.049Z,28.32
2018-04-12T11:36:35.535Z,28.86
2018-04-12T11:39:03.062Z,28.18
2018-04-12T11:41:30.549Z,27.97
2018-04-12T11:43:58.050Z,28.58
2018-04-12T11:46:25.562Z,29.70
2018-04-12T11:48:53.044Z,29.19
2018-04-12T11:51:20.535Z,29.47
2018-04-12T11:53:48.050Z,28.19
2018-04-12T11:56:15.547Z,27.61
2018-04-12T11:58:43.021Z,27.16
2018-04-12T12:01:10.534Z,27.42
2018-04-12T12:03:38.037Z,27.71
2018-04-12T12:06:05.545Z,29.08
2018-04-12T12:08:33.057Z,29.15
2018-04-12T12:11:00.546Z,28.44
2018-04-12T12:13:28.029Z,28.03
2018-04-12T12:15:55.542Z,27.73
2018-04-12T12:18:23.028Z,27.09
2018-04-12T12:20:50.513Z,26.51
2018-04-12T12:23:18.024Z,26.18
2018-04-12T12:25:45.530Z,25.72
2018-04-12T12:28:13.008Z,25.23
2018-04-12T12:30:40.513Z,25.77
2018-04-12T12:33:08.007Z,26.34
2018-04-12T12:35:35.490Z,26.36
2018-04-12T12:38:03.006Z,26.33
2018-04-12T12:40:30.502Z,26.34
2018-04-12T12:42:58.003Z,26.22
2018-04-12T12:45:25.693Z,26.44
2018-04-12T12:47:53.192Z,26.46
2018-04-12T12:50:20.673Z,26.37
2018-04-12T12:52:49.072Z,26.74
2018-04-12T12:55:16.557Z,26.27
2018-04-12T12:57:44.044Z,25.45
2018-04-12T13:00:11.560Z,25.21
2018-04-12T13:02:39.049Z,25.32
2018-04-12T13:05:06.532Z,25.09
2018-04-12T13:07:34.160Z,25.88
2018-04-12T13:10:01.651Z,25.79
2018-04-12T13:12:29.154Z,25.60
2018-04-12T13:14:56.674Z,25.50
2018-04-12T13:17:24.161Z,25.74
2018-04-12T13:19:51.644Z,25.66
2018-04-12T13:22:19.158Z,25.42
2018-04-12T13:24:46.644Z,25.80
2018-04-12T13:27:14.168Z,25.71
2018-04-12T13:29:42.674Z,25.65
2018-04-12T13:32:10.167Z,26.06
2018-04-12T13:34:37.639Z,25.82
2018-04-12T13:37:05.156Z,25.41
2018-04-12T13:39:32.644Z,24.72
2018-04-12T13:42:00.138Z,24.67
2018-04-12T13:44:27.657Z,24.25
2018-04-12T13:46:55.144Z,23.77
2018-04-12T13:49:22.620Z,23.31
2018-04-12T13:51:50.133Z,23.01
2018-04-12T13:54:17.613Z,22.82
2018-04-12T13:56:45.098Z,22.79
2018-04-12T13:59:12.613Z,22.64
2018-04-12T14:01:40.105Z,22.44
2018-04-12T14:04:07.603Z,22.49
2018-04-12T14:06:35.122Z,22.39
2018-04-12T14:09:02.607Z,22.31
2018-04-12T14:11:30.096Z,22.27
2018-04-12T14:13:57.602Z,22.25
2018-04-12T14:16:25.090Z,22.38
2018-04-12T14:18:52.577Z,22.44
2018-04-12T14:21:20.130Z,22.48
2018-04-12T14:23:47.580Z,22.64
2018-04-12T14:26:15.070Z,22.61
2018-04-12T14:28:43.511Z,23.16
2018-04-12T14:31:10.997Z,23.30
2018-04-12T14:33:38.489Z,23.50
2018-04-12T14:36:06.066Z,23.58
2018-04-12T14:38:34.047Z,23.62
2018-04-12T14:41:01.538Z,23.60
2018-04-12T14:43:29.055Z,23.45
2018-04-12T14:45:56.540Z,23.63
2018-04-12T14:48:24.058Z,23.66
2018-04-12T14:50:51.824Z,23.29
2018-04-12T14:53:19.308Z,23.25
2018-04-12T14:55:46.818Z,22.83
2018-04-12T14:58:14.300Z,22.70
2018-04-12T15:00:41.781Z,22.60
2018-04-12T15:03:09.336Z,22.57
2018-04-12T15:05:36.826Z,22.54
2018-04-12T15:08:04.325Z,22.50
2018-04-12T15:10:31.832Z,22.40
2018-04-12T15:13:00.253Z,22.02
2018-04-12T15:15:27.725Z,22.14
2018-04-12T15:17:55.233Z,22.20
2018-04-12T15:20:22.712Z,22.11
2018-04-12T15:22:50.197Z,21.99
2018-04-12T15:25:18.730Z,21.54
2018-04-12T15:27:46.214Z,21.69
2018-04-12T15:30:13.700Z,21.67
2018-04-12T15:32:41.219Z,21.75
2018-04-12T15:35:08.721Z,21.85
2018-04-12T15:37:36.235Z,21.84
2018-04-12T15:40:03.752Z,21.87
2018-04-12T15:42:31.228Z,21.83
2018-04-12T15:44:58.721Z,21.84
2018-04-12T15:47:26.221Z,21.84
2018-04-12T15:49:53.765Z,21.76
2018-04-12T15:52:21.281Z,21.85
2018-04-12T15:54:48.768Z,21.79
2018-04-12T15:57:16.285Z,21.72
2018-04-12T15:59:43.769Z,21.68
2018-04-12T16:02:11.250Z,21.63
2018-04-12T16:04:38.759Z,21.71
2018-04-12T16:07:06.249Z,21.78
2018-04-12T16:09:33.766Z,21.83
2018-04-12T16:12:01.259Z,21.69
2018-04-12T16:14:28.749Z,21.72
2018-04-12T16:16:56.258Z,21.63
2018-04-12T16:19:23.753Z,21.63
2018-04-12T16:21:51.244Z,21.45
2018-04-12T16:24:18.752Z,21.31
2018-04-12T16:26:46.240Z,21.34
2018-04-12T16:29:13.720Z,21.21
2018-04-12T16:31:41.228Z,21.19
2018-04-12T16:34:08.724Z,21.06
2018-04-12T16:36:36.217Z,21.00
2018-04-12T16:39:03.748Z,21.01
2018-04-12T16:41:31.232Z,20.84
2018-04-12T16:43:58.708Z,20.89
2018-04-12T16:46:26.221Z,20.84
2018-04-12T16:48:53.704Z,20.71
2018-04-12T16:51:21.202Z,20.61
2018-04-12T16:53:48.704Z,20.67
2018-04-12T16:56:16.193Z,20.67
2018-04-12T16:58:43.705Z,20.68
2018-04-12T17:01:11.193Z,20.66
2018-04-12T17:03:38.690Z,20.62
2018-04-12T17:06:07.208Z,20.60
2018-04-12T17:08:34.689Z,20.53
2018-04-12T17:11:02.194Z,20.46
2018-04-12T17:13:29.713Z,20.42
2018-04-12T17:15:57.205Z,20.38
2018-04-12T17:18:24.709Z,20.29
2018-04-12T17:20:52.217Z,20.16
2018-04-12T17:23:19.732Z,20.05
2018-04-12T17:25:47.228Z,19.95
2018-04-12T17:28:14.753Z,19.84
2018-04-12T17:30:42.236Z,19.66
2018-04-12T17:33:09.762Z,19.62
2018-04-12T17:35:37.251Z,19.53
2018-04-12T17:38:04.745Z,19.43
2018-04-12T17:40:32.303Z,19.33
2018-04-12T17:42:59.958Z,19.29
2018-04-12T17:45:27.713Z,19.24
2018-04-12T17:47:55.423Z,19.17
2018-04-12T17:50:22.934Z,19.05
2018-04-12T17:52:50.417Z,18.98
2018-04-12T17:55:18.117Z,18.86
2018-04-12T17:57:45.838Z,18.80
2018-04-12T18:00:13.350Z,18.75
2018-04-12T18:02:40.864Z,18.73
2018-04-12T18:05:08.414Z,18.68
2018-04-12T18:07:35.929Z,18.62
2018-04-12T18:10:03.426Z,18.55
2018-04-12T18:12:30.928Z,18.48
2018-04-12T18:14:58.569Z,18.49
2018-04-12T18:17:26.260Z,18.47
2018-04-12T18:19:53.799Z,18.39
2018-04-12T18:22:21.309Z,18.56
2018-04-12T18:24:48.929Z,18.49
2018-04-12T18:27:16.719Z,18.44
2018-04-12T18:29:44.310Z,18.38
2018-04-12T18:32:11.819Z,18.30
2018-04-12T18:34:39.304Z,18.24
2018-04-12T18:37:06.808Z,18.18
2018-04-12T18:39:34.301Z,18.12
2018-04-12T18:42:01.816Z,18.11
2018-04-12T18:44:29.324Z,18.06
2018-04-12T18:46:56.807Z,18.07
2018-04-12T18:49:24.301Z,18.07
2018-04-12T18:51:51.822Z,18.08
2018-04-12T18:54:19.311Z,18.03
2018-04-12T18:56:46.828Z,17.91
2018-04-12T18:59:14.344Z,17.82
2018-04-12T19:01:41.821Z,17.76
2018-04-12T19:04:09.334Z,17.69
2018-04-12T19:06:36.837Z,17.62
2018-04-12T19:09:04.330Z,17.55
2018-04-12T19:11:31.856Z,17.40
2018-04-12T19:13:59.349Z,17.20
2018-04-12T19:16:26.850Z,17.07
2018-04-12T19:18:54.363Z,16.91
2018-04-12T19:21:21.854Z,16.69
2018-04-12T19:23:49.337Z,16.74
2018-04-12T19:26:16.849Z,16.73
2018-04-12T19:28:44.341Z,16.67
2018-04-12T19:31:11.828Z,16.59
2018-04-12T19:33:39.336Z,16.48
2018-04-12T19:36:06.848Z,16.50
2018-04-12T19:38:34.332Z,16.44
2018-04-12T19:41:01.854Z,16.38
2018-04-12T19:43:30.233Z,16.30
2018-04-12T19:45:57.736Z,16.20
2018-04-12T19:48:25.235Z,16.02
2018-04-12T19:50:52.727Z,15.73
2018-04-12T19:53:20.218Z,15.62
2018-04-12T19:55:47.724Z,15.53
2018-04-12T19:58:15.214Z,15.69
2018-04-12T20:00:42.742Z,15.58
2018-04-12T20:03:10.230Z,15.50
2018-04-12T20:05:37.721Z,15.46
2018-04-12T20:08:05.235Z,15.39
2018-04-12T20:10:32.720Z,15.35
2018-04-12T20:13:00.209Z,15.30
2018-04-12T20:15:27.787Z,15.20
2018-04-12T20:17:55.251Z,15.08
2018-04-12T20:20:22.736Z,14.98
2018-04-12T20:22:50.261Z,14.85
2018-04-12T20:25:17.775Z,14.76
2018-04-12T20:27:45.252Z,14.62
2018-04-12T20:30:12.774Z,14.62
2018-04-12T20:32:40.262Z,14.59
2018-04-12T20:35:07.751Z,14.54
2018-04-12T20:37:36.141Z,14.53
2018-04-12T20:40:03.633Z,14.53
2018-04-12T20:42:31.129Z,14.50
2018-04-12T20:44:58.641Z,14.56
2018-04-12T20:47:26.124Z,14.57
2018-04-12T20:49:53.610Z,14.48
2018-04-12T20:52:21.120Z,14.33
2018-04-12T20:54:48.613Z,14.26
2018-04-12T20:57:16.102Z,14.19
2018-04-12T20:59:43.611Z,14.16
2018-04-12T21:02:11.103Z,14.22
2018-04-12T21:04:38.629Z,14.24
2018-04-12T21:07:06.157Z,14.08
2018-04-12T21:09:33.640Z,13.90
2018-04-12T21:12:01.120Z,13.72
2018-04-12T21:14:28.645Z,13.34
2018-04-12T21:16:56.157Z,13.12
2018-04-12T21:19:23.654Z,13.03
2018-04-12T21:21:51.174Z,12.96
2018-04-12T21:24:18.665Z,12.91
2018-04-12T21:26:46.204Z,12.91
2018-04-12T21:29:13.722Z,12.96
2018-04-12T21:31:41.214Z,12.95
2018-04-12T21:34:08.706Z,12.92
2018-04-12T21:36:36.241Z,12.88
2018-04-12T21:39:03.725Z,12.87
2018-04-12T21:41:31.213Z,12.73
2018-04-12T21:43:58.745Z,12.74
2018-04-12T21:46:27.122Z,12.69
2018-04-12T21:48:54.622Z,12.57
2018-04-12T21:51:22.143Z,12.50
2018-04-12T21:53:49.634Z,12.54
2018-04-12T21:56:17.141Z,12.60
2018-04-12T21:58:44.624Z,12.62
2018-04-12T22:01:12.110Z,12.62
2018-04-12T22:03:39.622Z,12.62
2018-04-12T22:06:07.114Z,12.67
2018-04-12T22:08:34.605Z,12.67
2018-04-12T22:11:02.117Z,12.67
2018-04-12T22:13:29.610Z,12.61
2018-04-12T22:15:57.109Z,12.56
2018-04-12T22:18:25.609Z,12.52
2018-04-12T22:20:53.089Z,12.48
2018-04-12T22:23:20.582Z,12.47
2018-04-12T22:25:48.096Z,12.46
2018-04-12T22:28:15.576Z,12.46
2018-04-12T22:30:43.065Z,12.49
2018-04-12T22:33:10.583Z,12.47
2018-04-12T22:35:38.064Z,12.57
2018-04-12T22:38:05.553Z,12.43
2018-04-12T22:40:33.070Z,12.48
2018-04-12T22:43:00.598Z,12.46
2018-04-12T22:45:28.081Z,12.48
2018-04-12T22:47:55.617Z,12.46
2018-04-12T22:50:23.097Z,12.48
2018-04-12T22:52:50.583Z,12.39
2018-04-12T22:55:18.110Z,12.47
2018-04-12T22:57:45.621Z,12.49
2018-04-12T23:00:13.121Z,12.50
2018-04-12T23:02:40.642Z,12.52
2018-04-12T23:05:08.134Z,12.50
2018-04-12T23:07:35.625Z,12.52
2018-04-12T23:10:03.133Z,12.51
2018-04-12T23:12:30.617Z,12.51
2018-04-12T23:14:58.102Z,12.47
2018-04-12T23:17:25.605Z,12.44
2018-04-12T23:19:53.094Z,12.30
2018-04-12T23:22:20.582Z,12.25
2018-04-12T23:24:48.094Z,12.21
2018-04-12T23:27:15.586Z,12.18
2018-04-12T23:29:43.093Z,12.14
2018-04-12T23:32:11.593Z,12.12
2018-04-12T23:34:39.086Z,12.07
2018-04-12T23:37:06.593Z,11.98
2018-04-12T23:39:34.097Z,11.96
2018-04-12T23:42:01.573Z,11.94
2018-04-12T23:44:29.058Z,11.93
2018-04-12T23:46:56.575Z,11.87
2018-04-12T23:49:24.066Z,11.84
2018-04-12T23:51:51.555Z,11.84
2018-04-12T23:54:19.078Z,11.81
2018-04-12T23:56:46.582Z,11.74
2018-04-12T23:59:14.073Z,11.67
